KDMW

Carroll County Regional / Jack B Poage Field Airport

Westminster, Maryland, USA
METAR KDMW 182310Z AUTO 24005KT 10SM CLR 24/21 A2985 RMK AO2
Observed Flight Rules
Aug-18 @ 23:10 UTC (36 minutes ago) Visual Flight Rules
Wind Visibility Clouds
240° at 5 knots 10 miles
  • Clear skies
Temperatures Readings
Current 24°C / 75°F
Dewpoint 21°C / 70°F
Humidity 83%
Altimeter 29.85" Hg
Pressure 1011 hPa
Elevation 241
METAR KDMW 182310Z AUTO 24005KT 10SM CLR 24/21 A2985 RMK AO2
Observed Flight Rules
Aug-18 @ 23:10 UTC
(36 minutes ago)
VFR
Wind Visibility
240° at 5 knots 10 miles
Clouds
  • Clear skies
Temperature Dewpoint
24°C / 75°F 21°C / 70°F
Humidity Altimeter Pressure
83% 29.85" Hg 1011 hPa